Time;durP1;ratioP1;P1;durP2;ratioP2;P2;SDS_P1;SDS_P2;PMS_P1;PMS_P2;Temp;Humidity;BMP_temperature;BMP_pressure;BME280_temperature;BME280_humidity;BME280_pressure;Samples;Min_cycle;Max_cycle;Signal;HPM_P1;HPM_P2
2020/12/25 00:02:12;;;;;;;3.90;2.40;;;5.60;99.90;;;;;;5117294;28;20504;-93
2020/12/25 00:04:38;;;;;;;4.50;2.40;;;5.70;99.90;;;;;;5117568;28;20231;-92
2020/12/25 00:07:06;;;;;;;3.55;3.25;;;5.60;99.90;;;;;;5117382;28;20271;-91
2020/12/25 00:09:32;;;;;;;2.40;2.20;;;5.60;99.90;;;;;;5117349;28;20198;-92
2020/12/25 00:11:58;;;;;;;6.88;2.90;;;5.60;99.90;;;;;;5117407;28;20275;-93
2020/12/25 00:14:24;;;;;;;3.08;2.75;;;5.60;99.90;;;;;;5117195;28;20248;-92
2020/12/25 00:16:50;;;;;;;5.10;2.70;;;5.60;99.90;;;;;;5117431;28;20727;-93
2020/12/25 00:19:16;;;;;;;2.85;2.65;;;5.60;99.90;;;;;;5118269;28;20197;-92
2020/12/25 00:21:42;;;;;;;3.90;2.85;;;5.60;99.90;;;;;;5118299;28;20280;-92
2020/12/25 00:24:09;;;;;;;5.57;3.40;;;5.60;99.90;;;;;;5117989;28;20644;-92
2020/12/25 00:26:35;;;;;;;5.75;3.20;;;5.50;99.90;;;;;;5118217;28;21056;-93
2020/12/25 00:29:03;;;;;;;3.10;2.90;;;5.50;99.90;;;;;;5118277;28;20239;-92
2020/12/25 00:31:32;;;;;;;4.07;2.80;;;5.50;99.90;;;;;;5117762;28;20279;-94
2020/12/25 00:33:59;;;;;;;2.65;2.45;;;5.60;99.90;;;;;;5117996;28;20215;-92
2020/12/25 00:36:27;;;;;;;2.60;2.40;;;5.60;99.90;;;;;;5117793;28;20282;-91
2020/12/25 00:38:54;;;;;;;4.10;2.75;;;5.60;99.90;;;;;;5117718;28;20356;-92
2020/12/25 00:41:21;;;;;;;3.60;2.50;;;5.60;99.90;;;;;;5117643;28;20263;-93
2020/12/25 00:43:47;;;;;;;4.70;2.53;;;5.70;99.90;;;;;;5117404;28;20712;-92
2020/12/25 00:46:14;;;;;;;3.25;2.38;;;5.70;99.90;;;;;;5102286;28;20271;-93
2020/12/25 00:48:40;;;;;;;5.75;2.70;;;5.70;99.90;;;;;;5097417;28;20634;-93
2020/12/25 00:51:12;;;;;;;2.63;2.35;;;5.70;99.90;;;;;;5097111;28;20620;-91
2020/12/25 00:53:38;;;;;;;3.20;2.58;;;5.70;99.90;;;;;;5096571;28;20291;-93
2020/12/25 00:56:04;;;;;;;2.75;2.45;;;5.80;99.90;;;;;;5097276;28;20619;-94
2020/12/25 00:58:31;;;;;;;2.30;1.90;;;5.70;99.90;;;;;;5097074;28;20284;-93
2020/12/25 01:00:57;;;;;;;2.15;1.98;;;5.70;99.90;;;;;;5097371;28;20231;-92
2020/12/25 01:03:23;;;;;;;4.25;2.20;;;5.60;99.90;;;;;;5097816;28;20286;-92
2020/12/25 01:05:49;;;;;;;2.53;2.30;;;5.60;99.90;;;;;;5097913;28;20184;-92
2020/12/25 01:08:16;;;;;;;3.80;2.50;;;5.60;99.90;;;;;;5100973;28;20652;-92
2020/12/25 01:10:42;;;;;;;2.88;2.58;;;5.70;99.90;;;;;;5110347;28;20446;-92
2020/12/25 01:13:08;;;;;;;2.40;2.20;;;5.60;99.90;;;;;;5114472;28;20200;-93
2020/12/25 01:15:34;;;;;;;2.73;2.53;;;5.60;99.90;;;;;;5107751;28;20185;-92
2020/12/25 01:18:00;;;;;;;2.42;2.22;;;5.60;99.90;;;;;;5096112;28;20850;-93
2020/12/25 01:20:26;;;;;;;3.40;2.50;;;5.70;99.90;;;;;;5076656;28;20235;-93
2020/12/25 01:22:52;;;;;;;2.90;2.28;;;5.70;99.90;;;;;;5076752;28;20197;-93
2020/12/25 01:25:18;;;;;;;5.53;2.23;;;5.70;99.90;;;;;;5076608;28;20212;-93
2020/12/25 01:27:44;;;;;;;4.07;2.30;;;5.70;99.90;;;;;;5084215;28;20475;-93
2020/12/25 01:30:10;;;;;;;2.17;1.98;;;5.60;99.90;;;;;;5094735;28;20213;-90
2020/12/25 01:32:37;;;;;;;2.10;1.90;;;5.60;99.90;;;;;;5090652;28;20217;-94
2020/12/25 01:35:04;;;;;;;2.53;2.28;;;5.50;99.90;;;;;;5077369;28;20617;-91
2020/12/25 01:37:30;;;;;;;2.05;1.95;;;5.60;99.90;;;;;;5076097;28;20275;-93
2020/12/25 01:39:56;;;;;;;2.42;2.20;;;5.60;99.90;;;;;;5075781;28;20225;-91
2020/12/25 01:42:22;;;;;;;1.90;1.80;;;5.60;99.90;;;;;;5076193;28;20197;-92
2020/12/25 01:44:48;;;;;;;3.23;1.73;;;5.50;99.90;;;;;;5082730;28;20581;-93
2020/12/25 01:47:17;;;;;;;1.80;1.70;;;5.60;99.90;;;;;;5116505;28;20512;-93
2020/12/25 01:49:44;;;;;;;2.90;1.77;;;5.60;99.90;;;;;;5116282;28;20529;-92
2020/12/25 01:52:11;;;;;;;1.60;1.50;;;5.60;99.90;;;;;;5116496;28;20550;-92
2020/12/25 01:54:37;;;;;;;4.18;2.42;;;5.60;99.90;;;;;;5116361;28;20336;-92
2020/12/25 01:57:04;;;;;;;2.80;1.70;;;5.60;99.90;;;;;;5116587;28;20287;-92
2020/12/25 01:59:31;;;;;;;4.13;1.88;;;5.50;99.90;;;;;;5116493;28;20215;-91
2020/12/25 02:01:58;;;;;;;2.03;1.92;;;5.40;99.90;;;;;;5116288;28;20657;-91
2020/12/25 02:04:24;;;;;;;1.40;1.30;;;5.40;99.90;;;;;;5115363;28;20279;-92
2020/12/25 02:06:52;;;;;;;1.75;1.65;;;5.40;99.90;;;;;;5115630;28;20640;-93
2020/12/25 02:09:18;;;;;;;1.60;1.50;;;5.40;99.90;;;;;;5115825;28;20329;-92
2020/12/25 02:11:44;;;;;;;2.35;1.88;;;5.50;99.90;;;;;;5115980;28;20333;-93
2020/12/25 02:14:10;;;;;;;2.53;1.70;;;5.50;99.90;;;;;;5115825;28;20287;-92
2020/12/25 02:16:36;;;;;;;2.03;1.45;;;5.50;99.90;;;;;;5116145;28;20279;-92
2020/12/25 02:19:02;;;;;;;1.88;1.30;;;5.50;99.90;;;;;;5115775;28;20286;-92
2020/12/25 02:21:29;;;;;;;2.75;1.35;;;5.40;99.90;;;;;;5115780;28;20325;-92
2020/12/25 02:23:55;;;;;;;2.08;1.10;;;5.40;99.90;;;;;;5115856;28;20187;-92
2020/12/25 02:26:21;;;;;;;1.15;1.05;;;5.30;99.90;;;;;;5115771;28;20279;-92
2020/12/25 02:28:47;;;;;;;3.73;1.10;;;5.30;99.90;;;;;;5115754;28;20192;-92
2020/12/25 02:31:13;;;;;;;3.13;1.10;;;5.30;99.90;;;;;;5115653;28;20853;-92
2020/12/25 02:33:39;;;;;;;1.83;1.10;;;5.30;99.90;;;;;;5115551;28;20231;-91
2020/12/25 02:36:05;;;;;;;1.83;0.95;;;5.20;99.90;;;;;;5115451;28;20481;-92
2020/12/25 02:38:32;;;;;;;1.85;1.08;;;5.30;99.90;;;;;;5115375;28;20283;-92
2020/12/25 02:40:58;;;;;;;1.38;0.90;;;5.20;99.90;;;;;;5115245;28;20278;-92
2020/12/25 02:43:24;;;;;;;1.37;1.10;;;5.30;99.90;;;;;;5115618;28;20206;-92
2020/12/25 02:45:50;;;;;;;1.50;1.20;;;5.20;99.90;;;;;;5103187;28;20453;-93
2020/12/25 02:48:16;;;;;;;1.77;0.80;;;5.30;99.90;;;;;;5094791;28;20532;-91
2020/12/25 02:50:42;;;;;;;3.92;1.02;;;5.10;99.90;;;;;;5094935;28;20737;-92
2020/12/25 02:53:08;;;;;;;1.20;1.10;;;5.10;99.90;;;;;;5094765;28;20192;-90
2020/12/25 02:55:35;;;;;;;0.87;0.87;;;5.10;99.90;;;;;;5095024;28;20447;-91
2020/12/25 02:58:01;;;;;;;2.10;0.82;;;5.10;99.90;;;;;;5094757;28;20863;-93
2020/12/25 03:00:28;;;;;;;0.87;0.70;;;5.00;99.90;;;;;;5094686;28;20188;-92
2020/12/25 03:02:54;;;;;;;2.97;1.20;;;5.00;99.90;;;;;;5094745;28;20541;-93
2020/12/25 03:05:20;;;;;;;1.00;0.70;;;4.90;99.90;;;;;;5094570;28;20287;-92
2020/12/25 03:07:46;;;;;;;3.10;0.80;;;4.90;99.90;;;;;;5094435;28;20267;-93
2020/12/25 03:10:12;;;;;;;7.30;0.90;;;4.90;99.90;;;;;;5094493;28;20662;-93
2020/12/25 03:12:39;;;;;;;2.95;0.90;;;5.00;99.90;;;;;;5094695;28;20538;-93
2020/12/25 03:15:05;;;;;;;0.90;0.77;;;5.00;99.90;;;;;;5094287;28;20658;-92
2020/12/25 03:17:31;;;;;;;1.10;0.77;;;4.90;99.90;;;;;;5094230;28;20235;-93
2020/12/25 03:19:56;;;;;;;0.90;0.87;;;4.90;99.90;;;;;;5094373;28;20488;-90
2020/12/25 03:22:22;;;;;;;0.80;0.70;;;5.00;99.90;;;;;;5094244;28;20447;-91
2020/12/25 03:24:48;;;;;;;1.23;0.70;;;4.90;99.90;;;;;;5094368;28;20478;-92
2020/12/25 03:27:14;;;;;;;2.17;0.77;;;5.00;99.90;;;;;;5094292;28;20213;-93
2020/12/25 03:29:41;;;;;;;0.70;0.60;;;4.90;99.90;;;;;;5094502;28;20677;-91
2020/12/25 03:32:07;;;;;;;1.20;0.80;;;4.90;99.90;;;;;;5094476;28;20553;-94
2020/12/25 03:34:33;;;;;;;1.47;0.93;;;4.90;99.90;;;;;;5094214;28;20552;-94
2020/12/25 03:36:59;;;;;;;2.63;0.70;;;4.90;99.90;;;;;;5093980;28;20454;-92
2020/12/25 03:39:25;;;;;;;0.90;0.80;;;4.90;99.90;;;;;;5094277;28;20311;-92
2020/12/25 03:41:52;;;;;;;1.43;0.90;;;4.90;99.90;;;;;;5094291;28;20226;-92
2020/12/25 03:44:18;;;;;;;1.23;0.73;;;4.90;99.90;;;;;;5094649;28;20538;-93
2020/12/25 03:46:45;;;;;;;3.10;1.00;;;4.80;99.90;;;;;;5113591;28;20648;-91
2020/12/25 03:49:11;;;;;;;0.70;0.60;;;4.80;99.90;;;;;;5114307;28;20274;-92
2020/12/25 03:51:38;;;;;;;0.70;0.70;;;4.80;99.90;;;;;;5114650;28;20187;-92
2020/12/25 03:54:04;;;;;;;0.60;0.60;;;4.80;99.90;;;;;;5114667;28;20279;-92
2020/12/25 03:56:30;;;;;;;0.95;0.85;;;4.80;99.90;;;;;;5114362;28;20659;-92
2020/12/25 03:58:56;;;;;;;0.80;0.68;;;4.80;99.90;;;;;;5114398;28;20215;-93
2020/12/25 04:01:22;;;;;;;1.90;0.60;;;4.90;99.90;;;;;;5114249;28;20282;-93
2020/12/25 04:03:49;;;;;;;1.85;0.85;;;4.90;99.90;;;;;;5113942;28;20355;-93
2020/12/25 04:06:15;;;;;;;2.90;1.05;;;5.00;99.90;;;;;;5113865;28;20673;-92
2020/12/25 04:08:43;;;;;;;3.90;0.88;;;4.90;99.90;;;;;;5114500;28;20222;-93
2020/12/25 04:11:09;;;;;;;1.60;0.70;;;5.00;99.90;;;;;;5114224;28;20257;-92
2020/12/25 04:13:35;;;;;;;1.17;0.70;;;5.00;99.90;;;;;;5114390;28;20275;-94
2020/12/25 04:16:01;;;;;;;1.37;0.83;;;5.00;99.90;;;;;;5114110;28;20198;-92
2020/12/25 04:18:27;;;;;;;1.05;0.60;;;4.90;99.90;;;;;;5113966;28;20514;-92
2020/12/25 04:20:54;;;;;;;1.58;0.88;;;5.00;99.90;;;;;;5114183;28;20255;-93
2020/12/25 04:23:20;;;;;;;0.70;0.60;;;5.00;99.90;;;;;;5114254;28;20284;-92
2020/12/25 04:25:46;;;;;;;2.33;0.90;;;4.90;99.90;;;;;;5114178;28;20344;-92
2020/12/25 04:28:12;;;;;;;0.70;0.60;;;4.90;99.90;;;;;;5114648;28;20234;-92
2020/12/25 04:30:38;;;;;;;3.07;0.50;;;4.90;99.90;;;;;;5117965;28;20450;-92
2020/12/25 04:33:04;;;;;;;0.93;0.73;;;4.90;99.90;;;;;;5117889;28;20455;-92
2020/12/25 04:35:30;;;;;;;0.70;0.63;;;4.90;99.90;;;;;;5117966;28;20476;-93
2020/12/25 04:37:57;;;;;;;0.93;0.65;;;4.90;99.90;;;;;;5118088;28;20540;-93
2020/12/25 04:40:23;;;;;;;0.80;0.80;;;4.90;99.90;;;;;;5117852;28;20306;-94
2020/12/25 04:42:51;;;;;;;1.67;0.88;;;4.90;99.90;;;;;;5117786;28;20639;-92
2020/12/25 04:45:18;;;;;;;3.70;1.10;;;4.80;99.90;;;;;;5110180;28;20317;-92
2020/12/25 04:47:46;;;;;;;1.58;0.70;;;4.80;99.90;;;;;;5096881;28;20307;-92
2020/12/25 04:50:12;;;;;;;1.20;0.90;;;4.80;99.90;;;;;;5097266;28;20652;-94
2020/12/25 04:52:39;;;;;;;1.42;0.63;;;4.80;99.90;;;;;;5097267;28;20252;-93
2020/12/25 04:55:06;;;;;;;2.17;0.70;;;4.90;99.90;;;;;;5097462;28;20613;-90
2020/12/25 04:57:32;;;;;;;1.23;1.13;;;4.80;99.90;;;;;;5096883;28;20280;-92
2020/12/25 04:59:58;;;;;;;1.02;0.68;;;4.90;99.90;;;;;;5097058;28;20215;-93
2020/12/25 05:02:24;;;;;;;1.05;0.70;;;4.90;99.90;;;;;;5096862;28;20284;-93
2020/12/25 05:04:50;;;;;;;0.70;0.60;;;4.90;99.90;;;;;;5097007;28;20639;-93
2020/12/25 05:07:18;;;;;;;3.63;0.67;;;4.80;99.90;;;;;;5096808;28;20513;-93
2020/12/25 05:09:44;;;;;;;1.77;1.20;;;4.80;99.90;;;;;;5096725;28;20521;-92
2020/12/25 05:12:12;;;;;;;1.10;0.70;;;4.60;99.90;;;;;;5096725;28;20196;-92
2020/12/25 05:14:42;;;;;;;0.88;0.70;;;4.60;99.90;;;;;;5096559;28;20185;-92
2020/12/25 05:17:11;;;;;;;1.42;0.70;;;4.60;99.90;;;;;;5096647;28;20214;-93
2020/12/25 05:19:40;;;;;;;1.23;0.90;;;4.60;99.90;;;;;;5096631;28;20288;-93
2020/12/25 05:22:07;;;;;;;1.10;0.90;;;4.50;99.90;;;;;;5096790;28;20235;-93
2020/12/25 05:24:36;;;;;;;1.00;0.90;;;4.50;99.90;;;;;;5096390;28;20739;-92
2020/12/25 05:27:03;;;;;;;3.00;0.90;;;4.40;99.90;;;;;;5096746;28;20648;-92
2020/12/25 05:29:30;;;;;;;2.55;1.10;;;4.30;99.90;;;;;;5096784;28;20602;-92
2020/12/25 05:31:56;;;;;;;1.45;1.33;;;4.20;99.90;;;;;;5096563;28;20192;-91
2020/12/25 05:34:23;;;;;;;2.33;1.50;;;4.10;99.90;;;;;;5096511;28;20271;-91
2020/12/25 05:36:51;;;;;;;1.20;1.00;;;4.10;99.90;;;;;;5096153;28;20185;-90
2020/12/25 05:39:26;;;;;;;1.00;1.00;;;4.10;99.90;;;;;;5095884;28;20307;-90
2020/12/25 05:41:56;;;;;;;2.55;1.10;;;4.00;99.90;;;;;;5095923;28;20227;-89
2020/12/25 05:44:24;;;;;;;1.95;0.93;;;4.00;99.90;;;;;;5096423;28;20220;-91
2020/12/25 05:46:52;;;;;;;2.67;1.25;;;4.00;99.90;;;;;;5075694;28;20295;-90
2020/12/25 05:49:18;;;;;;;1.05;0.90;;;4.00;99.90;;;;;;5075782;28;20715;-90
2020/12/25 05:51:49;;;;;;;1.10;1.00;;;4.00;99.90;;;;;;5075619;28;20609;-89
2020/12/25 05:54:20;;;;;;;1.60;1.30;;;4.00;99.90;;;;;;5075458;28;20716;-91
2020/12/25 05:56:51;;;;;;;3.35;1.30;;;4.10;99.90;;;;;;5075582;28;20185;-89
2020/12/25 05:59:23;;;;;;;1.00;0.80;;;4.00;99.90;;;;;;5075744;28;20189;-90
2020/12/25 06:01:52;;;;;;;1.17;0.90;;;4.00;99.90;;;;;;5075516;28;20193;-89
2020/12/25 06:04:18;;;;;;;1.05;0.95;;;4.00;99.90;;;;;;5075394;28;20185;-90
2020/12/25 06:06:46;;;;;;;1.52;1.35;;;4.00;99.90;;;;;;5075159;28;20225;-90
2020/12/25 06:09:16;;;;;;;1.90;0.95;;;4.10;99.90;;;;;;5075543;28;20199;-90
2020/12/25 06:11:46;;;;;;;0.90;0.90;;;4.00;99.90;;;;;;5075311;28;20251;-90
2020/12/25 06:14:12;;;;;;;1.00;0.73;;;4.00;99.90;;;;;;5078119;28;20702;-90
2020/12/25 06:16:44;;;;;;;1.55;0.80;;;4.10;99.90;;;;;;5087255;28;20239;-89
2020/12/25 06:19:20;;;;;;;2.15;0.80;;;4.10;99.90;;;;;;5088724;28;20228;-91
2020/12/25 06:21:51;;;;;;;0.70;0.65;;;4.00;99.90;;;;;;5080877;28;20601;-91
2020/12/25 06:24:18;;;;;;;0.70;0.60;;;4.00;99.90;;;;;;5075601;28;20277;-91
2020/12/25 06:26:45;;;;;;;0.70;0.60;;;4.00;99.90;;;;;;5075025;28;20288;-91
2020/12/25 06:29:15;;;;;;;2.25;0.70;;;4.10;99.90;;;;;;5075314;28;20268;-91
2020/12/25 06:31:43;;;;;;;4.60;0.75;;;4.10;99.90;;;;;;5074823;28;20189;-90
2020/12/25 06:34:11;;;;;;;1.10;0.80;;;4.10;99.90;;;;;;5075168;28;20266;-91
2020/12/25 06:36:42;;;;;;;1.10;1.00;;;4.20;99.90;;;;;;5075208;28;20271;-91
2020/12/25 06:39:10;;;;;;;1.30;0.70;;;4.20;99.90;;;;;;5074621;28;20308;-91
2020/12/25 06:41:37;;;;;;;1.00;0.80;;;4.20;99.90;;;;;;5074671;28;20280;-90
2020/12/25 06:44:07;;;;;;;1.90;1.00;;;4.20;99.90;;;;;;5074501;28;20819;-89
2020/12/25 06:46:34;;;;;;;1.00;0.73;;;4.20;99.90;;;;;;5110438;28;20253;-90
2020/12/25 06:49:03;;;;;;;4.50;0.70;;;4.30;99.90;;;;;;5115179;28;20272;-90
2020/12/25 06:51:30;;;;;;;1.58;1.00;;;4.30;99.90;;;;;;5114646;28;20192;-90
2020/12/25 06:53:57;;;;;;;1.00;0.90;;;4.30;99.90;;;;;;5115157;28;20275;-91
2020/12/25 06:56:23;;;;;;;1.25;1.15;;;4.30;99.90;;;;;;5115038;28;20296;-91
2020/12/25 06:58:51;;;;;;;0.70;0.70;;;4.30;99.90;;;;;;5114795;28;20274;-92
2020/12/25 07:01:34;;;;;;;1.00;0.90;;;4.40;99.90;;;;;;5115183;28;20199;-91
2020/12/25 07:04:00;;;;;;;1.30;0.80;;;4.30;99.90;;;;;;5115098;28;20191;-91
2020/12/25 07:06:30;;;;;;;1.45;0.98;;;4.30;99.90;;;;;;5114919;28;20283;-92
2020/12/25 07:09:08;;;;;;;1.75;1.60;;;4.30;99.90;;;;;;5114015;28;20226;-90
2020/12/25 07:11:34;;;;;;;2.90;0.90;;;4.30;99.90;;;;;;5113752;28;20559;-90
2020/12/25 07:14:00;;;;;;;1.65;1.20;;;4.40;99.90;;;;;;5113891;28;20283;-91
2020/12/25 07:16:26;;;;;;;2.17;1.40;;;4.40;99.90;;;;;;5113872;28;20271;-90
2020/12/25 07:18:52;;;;;;;2.65;1.20;;;4.50;99.90;;;;;;5113685;28;20621;-90
2020/12/25 07:21:18;;;;;;;2.43;1.10;;;4.50;99.90;;;;;;5113700;28;20184;-91
2020/12/25 07:23:46;;;;;;;1.70;1.20;;;4.40;99.90;;;;;;5113444;28;20530;-90
2020/12/25 07:26:12;;;;;;;1.38;1.23;;;4.30;99.90;;;;;;5113817;28;20274;-91
2020/12/25 07:28:39;;;;;;;2.65;1.30;;;4.20;99.90;;;;;;5113464;28;20627;-90
2020/12/25 07:31:06;;;;;;;2.33;1.50;;;4.20;99.90;;;;;;5113768;28;20613;-91
2020/12/25 07:33:32;;;;;;;1.30;1.20;;;4.20;99.90;;;;;;5113234;28;20646;-91
2020/12/25 07:35:58;;;;;;;3.78;1.30;;;4.20;99.90;;;;;;5113424;28;20659;-91
2020/12/25 07:38:25;;;;;;;1.52;1.42;;;4.20;99.90;;;;;;5113053;28;20274;-91
2020/12/25 07:40:52;;;;;;;1.13;1.00;;;4.30;99.90;;;;;;5113566;28;20188;-90
2020/12/25 07:43:18;;;;;;;1.50;1.05;;;4.30;99.90;;;;;;5113407;28;20606;-91
2020/12/25 07:45:46;;;;;;;1.45;1.35;;;4.20;99.90;;;;;;5102101;28;20275;-90
2020/12/25 07:48:13;;;;;;;1.45;1.10;;;4.20;99.90;;;;;;5092817;28;20220;-90
2020/12/25 07:50:40;;;;;;;0.98;0.85;;;4.20;99.90;;;;;;5092997;28;20196;-91
2020/12/25 07:53:08;;;;;;;1.98;1.30;;;4.20;99.90;;;;;;5092700;28;20195;-91
2020/12/25 07:55:35;;;;;;;3.08;1.30;;;4.20;99.90;;;;;;5092966;28;20279;-90
2020/12/25 07:58:02;;;;;;;1.30;1.20;;;4.20;99.90;;;;;;5092950;28;20224;-90
2020/12/25 08:00:28;;;;;;;0.90;0.90;;;4.30;99.90;;;;;;5092924;28;20188;-90
2020/12/25 08:02:54;;;;;;;1.40;0.88;;;4.40;99.90;;;;;;5093036;28;20281;-90
2020/12/25 08:05:20;;;;;;;1.17;1.08;;;4.50;99.90;;;;;;5096955;28;20275;-90
2020/12/25 08:07:47;;;;;;;2.55;1.02;;;4.50;99.90;;;;;;5096595;28;20303;-90
2020/12/25 08:10:17;;;;;;;1.52;1.42;;;4.60;99.90;;;;;;5097005;28;20551;-91
2020/12/25 08:12:44;;;;;;;1.10;1.00;;;4.70;99.90;;;;;;5096947;28;20223;-91
2020/12/25 08:15:13;;;;;;;2.42;1.00;;;4.60;99.90;;;;;;5096869;28;20246;-90
2020/12/25 08:17:39;;;;;;;2.08;1.50;;;4.70;99.90;;;;;;5096720;28;20197;-90
2020/12/25 08:20:05;;;;;;;0.93;0.80;;;4.70;99.90;;;;;;5096524;28;20597;-90
2020/12/25 08:22:31;;;;;;;1.10;1.00;;;4.70;99.90;;;;;;5096840;28;20381;-89
2020/12/25 08:24:58;;;;;;;1.42;0.95;;;4.70;99.90;;;;;;5096831;28;20442;-90
2020/12/25 08:27:24;;;;;;;1.05;0.70;;;4.70;99.90;;;;;;5096618;28;20208;-92
2020/12/25 08:29:50;;;;;;;1.00;0.70;;;4.70;99.90;;;;;;5096473;28;20246;-90
2020/12/25 08:32:17;;;;;;;1.90;0.80;;;4.60;99.90;;;;;;5096483;28;20275;-90
2020/12/25 08:34:43;;;;;;;0.82;0.80;;;4.50;99.90;;;;;;5096353;28;20189;-90
2020/12/25 08:37:13;;;;;;;0.85;0.80;;;4.50;99.90;;;;;;5096578;28;20280;-90
2020/12/25 08:39:40;;;;;;;1.08;0.98;;;4.40;99.90;;;;;;5096183;28;20227;-91
2020/12/25 08:42:09;;;;;;;2.00;0.95;;;4.50;99.90;;;;;;5096378;28;20599;-90
2020/12/25 08:44:35;;;;;;;3.90;1.20;;;4.50;99.90;;;;;;5097687;28;20195;-90
2020/12/25 08:47:09;;;;;;;1.65;1.20;;;4.50;99.90;;;;;;5116410;28;20302;-89
2020/12/25 08:49:36;;;;;;;1.10;0.95;;;4.50;99.90;;;;;;5116447;28;20226;-91
2020/12/25 08:52:02;;;;;;;1.52;0.80;;;4.60;99.90;;;;;;5116623;28;20226;-90
2020/12/25 08:54:30;;;;;;;1.55;0.77;;;4.60;99.90;;;;;;5116625;28;20279;-90
2020/12/25 08:56:59;;;;;;;1.10;0.73;;;4.50;99.90;;;;;;5116482;28;20278;-91
2020/12/25 08:59:25;;;;;;;2.05;1.10;;;4.50;99.90;;;;;;5116220;28;20256;-90
2020/12/25 09:01:51;;;;;;;2.20;0.80;;;4.40;99.90;;;;;;5116177;28;20634;-90
2020/12/25 09:04:19;;;;;;;1.33;1.00;;;4.50;99.90;;;;;;5116296;28;20448;-91
2020/12/25 09:06:49;;;;;;;1.10;0.65;;;4.50;99.90;;;;;;5116310;28;20198;-90
2020/12/25 09:09:15;;;;;;;1.55;0.80;;;4.50;99.90;;;;;;5116122;28;20306;-91
2020/12/25 09:11:41;;;;;;;0.90;0.88;;;4.60;99.90;;;;;;5115963;28;20647;-91
2020/12/25 09:14:07;;;;;;;1.00;0.90;;;4.60;99.90;;;;;;5115363;28;20730;-90
2020/12/25 09:16:33;;;;;;;2.22;1.50;;;4.60;99.90;;;;;;5115987;28;20260;-90
2020/12/25 09:18:59;;;;;;;2.40;1.05;;;4.60;99.90;;;;;;5116032;28;20223;-92
2020/12/25 09:21:28;;;;;;;1.92;1.05;;;4.60;99.90;;;;;;5116072;28;20191;-91
2020/12/25 09:23:54;;;;;;;0.82;0.80;;;4.60;99.90;;;;;;5115841;28;20275;-92
2020/12/25 09:26:20;;;;;;;1.10;1.00;;;4.60;99.90;;;;;;5115784;28;20199;-91
2020/12/25 09:28:46;;;;;;;1.38;0.90;;;4.60;99.90;;;;;;5115618;28;20259;-90
2020/12/25 09:31:13;;;;;;;1.00;0.90;;;4.60;99.90;;;;;;5115928;28;20215;-91
2020/12/25 09:33:39;;;;;;;1.13;0.90;;;4.70;99.90;;;;;;5115840;28;20442;-92
2020/12/25 09:36:07;;;;;;;3.33;1.35;;;4.70;99.90;;;;;;5115689;28;20279;-92
2020/12/25 09:38:33;;;;;;;1.27;1.17;;;4.80;99.90;;;;;;5115560;28;20535;-91
2020/12/25 09:41:00;;;;;;;2.47;1.20;;;4.70;99.90;;;;;;5115575;28;20275;-91
2020/12/25 09:43:28;;;;;;;0.85;0.85;;;4.80;99.90;;;;;;5115542;28;20278;-91
2020/12/25 09:45:54;;;;;;;2.88;1.10;;;4.90;99.90;;;;;;5103039;28;20185;-91
2020/12/25 09:48:20;;;;;;;2.60;0.90;;;5.00;99.90;;;;;;5095035;28;20365;-91
2020/12/25 09:50:46;;;;;;;1.25;1.00;;;5.10;99.90;;;;;;5094789;28;20722;-91
2020/12/25 09:53:12;;;;;;;1.13;1.02;;;5.20;99.90;;;;;;5095020;28;20785;-91
2020/12/25 09:55:40;;;;;;;1.30;1.20;;;5.30;99.90;;;;;;5095021;28;20539;-91
2020/12/25 09:58:07;;;;;;;1.33;1.23;;;5.40;99.90;;;;;;5094875;28;20193;-91
2020/12/25 10:00:34;;;;;;;1.60;1.00;;;5.50;99.90;;;;;;5094763;28;20220;-92
2020/12/25 10:03:00;;;;;;;1.90;1.15;;;5.60;99.90;;;;;;5095060;28;20235;-92
2020/12/25 10:05:26;;;;;;;2.15;1.10;;;5.70;99.90;;;;;;5094638;28;20193;-91
2020/12/25 10:07:52;;;;;;;2.33;1.57;;;5.80;99.90;;;;;;5094808;28;20311;-92
2020/12/25 10:10:20;;;;;;;1.10;1.00;;;5.90;99.90;;;;;;5094678;28;20953;-90
2020/12/25 10:12:46;;;;;;;1.20;1.10;;;5.90;99.90;;;;;;5094610;28;20271;-92
2020/12/25 10:15:13;;;;;;;1.20;1.00;;;5.80;99.90;;;;;;5094466;28;20207;-91
2020/12/25 10:17:39;;;;;;;1.00;0.88;;;5.80;99.90;;;;;;5094713;28;20200;-91
2020/12/25 10:20:08;;;;;;;1.75;1.17;;;5.90;99.90;;;;;;5094378;28;20345;-90
2020/12/25 10:22:34;;;;;;;2.47;1.17;;;5.90;99.90;;;;;;5094730;28;20189;-92
2020/12/25 10:25:00;;;;;;;2.00;0.88;;;5.80;99.90;;;;;;5094262;28;20216;-91
2020/12/25 10:27:26;;;;;;;1.23;1.13;;;5.80;99.90;;;;;;5093850;28;20204;-92
2020/12/25 10:29:52;;;;;;;3.17;1.40;;;5.70;99.90;;;;;;5094184;28;20227;-91
2020/12/25 10:32:19;;;;;;;3.13;1.80;;;5.60;99.90;;;;;;5094446;28;20219;-91
2020/12/25 10:34:45;;;;;;;3.88;1.05;;;5.70;99.90;;;;;;5094262;28;20592;-91
2020/12/25 10:37:11;;;;;;;1.98;1.10;;;5.70;99.90;;;;;;5094417;28;20243;-92
2020/12/25 10:39:37;;;;;;;2.53;1.02;;;5.70;99.90;;;;;;5093820;28;20560;-91
2020/12/25 10:42:07;;;;;;;2.80;1.33;;;5.80;99.90;;;;;;5094408;28;20185;-92
2020/12/25 10:44:33;;;;;;;1.65;1.40;;;5.80;99.90;;;;;;5096747;28;20189;-91
2020/12/25 10:46:59;;;;;;;1.20;1.10;;;5.80;99.90;;;;;;5114889;28;20279;-91
2020/12/25 10:49:26;;;;;;;1.85;1.30;;;5.80;99.90;;;;;;5114306;28;20215;-90
2020/12/25 10:51:52;;;;;;;2.85;1.25;;;5.90;99.90;;;;;;5114373;28;20215;-92
2020/12/25 10:54:18;;;;;;;1.92;1.17;;;6.00;99.90;;;;;;5114871;28;20321;-91
2020/12/25 10:56:44;;;;;;;1.30;1.20;;;6.00;99.90;;;;;;5115106;28;20282;-91
2020/12/25 10:59:10;;;;;;;2.30;1.10;;;5.80;99.90;;;;;;5115256;28;20282;-92
2020/12/25 11:01:36;;;;;;;5.53;2.97;;;5.80;99.90;;;;;;5115084;28;20960;-92
2020/12/25 11:04:02;;;;;;;1.30;1.00;;;5.80;99.90;;;;;;5115530;28;20541;-92
2020/12/25 11:06:31;;;;;;;4.88;1.88;;;5.80;99.90;;;;;;5114693;28;20192;-91
2020/12/25 11:08:57;;;;;;;2.78;1.40;;;5.90;99.90;;;;;;5114896;28;20257;-92
2020/12/25 11:11:23;;;;;;;3.25;1.60;;;5.90;99.90;;;;;;5115992;28;20199;-91
2020/12/25 11:13:49;;;;;;;1.23;0.93;;;5.90;99.90;;;;;;5130967;28;20184;-92
2020/12/25 11:16:23;;;;;;;3.47;1.20;;;5.80;99.90;;;;;;5116386;28;20264;-91
2020/12/25 11:18:49;;;;;;;4.38;1.52;;;5.90;99.90;;;;;;5115393;28;20187;-92
2020/12/25 11:21:22;;;;;;;8.52;4.13;;;5.90;99.90;;;;;;5115172;28;20270;-92
2020/12/25 11:23:50;;;;;;;1.77;1.42;;;5.90;99.90;;;;;;5116178;28;20271;-93
2020/12/25 11:26:21;;;;;;;1.00;0.90;;;5.80;99.90;;;;;;5114353;28;20195;-93
2020/12/25 11:28:47;;;;;;;2.28;1.30;;;5.70;99.90;;;;;;5114640;28;20223;-92
2020/12/25 11:31:14;;;;;;;1.77;1.15;;;5.70;99.90;;;;;;5114465;28;20282;-92
2020/12/25 11:33:41;;;;;;;2.40;1.23;;;5.70;99.90;;;;;;5114424;28;20194;-92
2020/12/25 11:36:11;;;;;;;2.40;1.13;;;5.70;99.90;;;;;;5114177;28;20548;-92
2020/12/25 11:38:37;;;;;;;2.80;1.20;;;5.80;99.90;;;;;;5113918;28;20274;-92
2020/12/25 11:41:06;;;;;;;2.47;1.20;;;5.80;99.90;;;;;;5114106;28;20538;-92
2020/12/25 11:43:31;;;;;;;1.10;1.00;;;5.80;99.90;;;;;;5113996;28;20583;-91
2020/12/25 11:45:59;;;;;;;1.77;1.00;;;5.90;99.90;;;;;;5100322;28;20659;-91
2020/12/25 11:48:25;;;;;;;1.42;1.10;;;5.90;99.90;;;;;;5093054;28;20573;-94
2020/12/25 11:50:51;;;;;;;2.60;1.20;;;5.90;99.90;;;;;;5093212;28;20280;-92
2020/12/25 11:53:17;;;;;;;1.52;1.00;;;5.90;99.90;;;;;;5093079;28;20200;-93
2020/12/25 11:55:43;;;;;;;2.70;1.30;;;5.90;99.90;;;;;;5093257;28;20228;-93
2020/12/25 11:58:09;;;;;;;4.43;1.38;;;5.80;99.90;;;;;;5093254;28;20537;-95
2020/12/25 12:00:35;;;;;;;1.13;1.00;;;5.80;99.90;;;;;;5092877;28;20279;-92
2020/12/25 12:03:01;;;;;;;2.33;1.33;;;5.70;99.90;;;;;;5092918;28;20223;-92
2020/12/25 12:05:27;;;;;;;1.17;1.07;;;5.60;99.90;;;;;;5092961;28;20855;-91
2020/12/25 12:07:53;;;;;;;3.73;1.40;;;5.50;99.90;;;;;;5093035;28;20478;-92
2020/12/25 12:10:19;;;;;;;1.25;1.10;;;5.30;99.90;;;;;;5093121;28;20842;-92
2020/12/25 12:12:45;;;;;;;2.30;1.73;;;5.30;99.90;;;;;;5092707;28;20234;-92
2020/12/25 12:15:12;;;;;;;2.10;1.43;;;5.20;99.90;;;;;;5093053;28;20454;-95
2020/12/25 12:17:38;;;;;;;1.33;1.23;;;5.30;99.90;;;;;;5092574;28;20554;-93
2020/12/25 12:20:04;;;;;;;1.97;1.40;;;5.30;99.90;;;;;;5093233;28;20189;-93
2020/12/25 12:22:30;;;;;;;1.80;1.67;;;5.30;99.90;;;;;;5093055;28;20506;-92
2020/12/25 12:24:56;;;;;;;3.08;1.42;;;5.20;99.90;;;;;;5092843;28;20652;-93
2020/12/25 12:27:22;;;;;;;2.40;1.35;;;5.10;99.90;;;;;;5092539;28;20310;-92
2020/12/25 12:29:48;;;;;;;4.00;1.57;;;5.10;99.90;;;;;;5092650;28;20189;-95
2020/12/25 12:32:15;;;;;;;1.67;1.50;;;5.10;99.90;;;;;;5092673;28;20446;-94
2020/12/25 12:34:41;;;;;;;1.95;1.73;;;5.10;99.90;;;;;;5093061;28;20279;-93
2020/12/25 12:37:07;;;;;;;1.87;1.77;;;5.10;99.90;;;;;;5092689;28;20196;-93
2020/12/25 12:39:33;;;;;;;2.37;2.07;;;5.10;99.90;;;;;;5092676;28;20964;-93
2020/12/25 12:41:59;;;;;;;3.00;1.43;;;5.10;99.90;;;;;;5092446;28;20486;-92
2020/12/25 12:44:25;;;;;;;3.40;1.60;;;5.10;99.90;;;;;;5092728;28;20538;-93
2020/12/25 12:46:53;;;;;;;1.38;1.27;;;5.20;99.90;;;;;;5112731;28;20619;-92
2020/12/25 12:49:20;;;;;;;1.90;1.40;;;5.20;99.90;;;;;;5114151;28;20616;-92
2020/12/25 12:51:46;;;;;;;3.80;1.60;;;5.20;99.90;;;;;;5116849;28;20345;-93
2020/12/25 12:54:12;;;;;;;1.95;1.52;;;5.20;99.90;;;;;;5116643;28;20286;-93
2020/12/25 12:56:38;;;;;;;2.33;2.08;;;5.10;99.90;;;;;;5116599;28;20279;-92